West Glens Falls, New York
Current Conditions -  °F | °C
As of 7:53 AM on Tuesday 21 Oct 2014 (Local Time) from KGFL Reporting Station
Light Rain Light Rain  
Wind Chill: 46°   Ceiling: 6500
Heat Index: 46°   Visibility: 8mi
Dew Point: 44°   Wind: 0mph
Humidity: 93%   Direction: NA
Pressure: 29.92"   Gusts: NA
Location:  43.3117°N, 73.645°W
Report Text: KGFL 211153Z AUTO 00000KT 8SM -RA BKN065 OVC085 08/07 A2992 RMK AO2 RAB48 SLP137 P0000 60002 70002 T00780067 10078 20067 53003
Loading
Personal Weather Stations






























Interactive Weather Map
Tropical Storm Tracking
New forecast layout! Learn more

10-Day Weather Forecast

Advertisements
Track Severe Weather on mobile